Time;durP1;ratioP1;P1;durP2;ratioP2;P2;SDS_P1;SDS_P2;PMS_P1;PMS_P2;Temp;Humidity;BMP_temperature;BMP_pressure;BME280_temperature;BME280_humidity;BME280_pressure;Samples;Min_cycle;Max_cycle;Signal;HPM_P1;HPM_P2
2022/04/04 00:00:57;;;;;;;9.60;5.50;;;5.10;67.70;;;;;;5036022;28;20273;-90
2022/04/04 00:03:22;;;;;;;9.82;5.40;;;5.20;67.70;;;;;;5018017;28;20529;-90
2022/04/04 00:05:48;;;;;;;7.90;5.50;;;5.10;67.80;;;;;;5018694;28;20658;-90
2022/04/04 00:08:14;;;;;;;7.80;5.50;;;5.10;67.80;;;;;;5018244;28;20175;-90
2022/04/04 00:10:40;;;;;;;8.30;5.60;;;5.10;67.80;;;;;;5017603;28;20201;-90
2022/04/04 00:13:06;;;;;;;7.63;5.80;;;5.00;67.80;;;;;;5018483;28;20440;-89
2022/04/04 00:15:32;;;;;;;8.50;5.90;;;5.10;67.90;;;;;;5018842;28;20217;-89
2022/04/04 00:18:05;;;;;;;8.40;5.13;;;5.00;68.00;;;;;;5036305;28;20208;-89
2022/04/04 00:20:31;;;;;;;14.27;5.72;;;4.90;68.20;;;;;;5018983;28;20477;-89
2022/04/04 00:22:57;;;;;;;8.60;6.13;;;5.10;68.20;;;;;;5019635;28;20217;-89
2022/04/04 00:25:23;;;;;;;7.60;5.10;;;5.10;68.10;;;;;;5007748;28;20432;-89
2022/04/04 00:27:50;;;;;;;7.27;5.20;;;5.00;68.00;;;;;;5018143;28;20460;-89
2022/04/04 00:30:17;;;;;;;6.97;5.07;;;5.20;68.00;;;;;;5016184;28;20182;-89
2022/04/04 00:32:43;;;;;;;7.05;4.88;;;5.10;67.80;;;;;;5016929;28;20204;-90
2022/04/04 00:35:09;;;;;;;9.65;5.72;;;5.10;67.70;;;;;;5017675;28;20532;-89
2022/04/04 00:37:37;;;;;;;11.02;5.80;;;5.20;67.60;;;;;;5017129;28;20216;-89
2022/04/04 00:40:05;;;;;;;7.40;5.93;;;5.20;67.50;;;;;;5017968;28;20654;-89
2022/04/04 00:42:31;;;;;;;10.10;5.63;;;5.00;67.60;;;;;;5001927;28;20309;-89
2022/04/04 00:44:57;;;;;;;6.50;5.32;;;4.90;67.90;;;;;;5019288;28;20178;-89
2022/04/04 00:47:23;;;;;;;8.73;6.10;;;4.90;68.10;;;;;;5042286;28;20185;-89
2022/04/04 00:49:49;;;;;;;8.55;5.53;;;5.00;68.10;;;;;;5047304;28;20439;-90
2022/04/04 00:52:15;;;;;;;7.57;5.27;;;5.00;67.90;;;;;;5033452;28;20280;-89
2022/04/04 00:54:44;;;;;;;7.30;4.97;;;5.00;67.90;;;;;;5034272;28;20454;-89
2022/04/04 00:57:10;;;;;;;7.18;5.00;;;5.00;67.90;;;;;;5031714;28;20213;-89
2022/04/04 00:59:37;;;;;;;8.73;6.05;;;5.00;68.00;;;;;;5026078;28;20231;-89
2022/04/04 01:02:04;;;;;;;8.75;5.10;;;5.00;68.70;;;;;;5024084;28;20202;-89
2022/04/04 01:04:29;;;;;;;5.97;4.70;;;5.10;67.90;;;;;;5036041;28;20189;-89
2022/04/04 01:06:55;;;;;;;11.90;5.63;;;4.90;67.80;;;;;;5035313;28;20189;-90
2022/04/04 01:09:21;;;;;;;5.63;4.70;;;5.00;68.00;;;;;;5031067;28;20220;-90
2022/04/04 01:12:09;;;;;;;7.70;5.00;;;4.90;68.00;;;;;;5022813;28;20417;-89
2022/04/04 01:14:46;;;;;;;7.35;5.07;;;4.90;68.10;;;;;;5023541;28;20558;-89
2022/04/04 01:17:13;;;;;;;5.28;3.90;;;4.80;68.10;;;;;;5035528;28;20715;-89
2022/04/04 01:19:39;;;;;;;8.25;4.93;;;5.00;68.20;;;;;;5022467;28;20174;-89
2022/04/04 01:22:07;;;;;;;6.97;4.70;;;5.00;67.90;;;;;;5021379;28;20648;-90
2022/04/04 01:24:33;;;;;;;7.35;4.93;;;5.10;67.70;;;;;;5021465;28;20508;-91
2022/04/04 01:26:59;;;;;;;5.88;5.25;;;5.10;67.50;;;;;;5039750;28;20244;-91
2022/04/04 01:29:25;;;;;;;8.30;5.60;;;5.00;67.50;;;;;;5022651;28;20557;-90
2022/04/04 01:31:52;;;;;;;6.93;5.50;;;5.10;67.70;;;;;;5023609;28;20185;-90
2022/04/04 01:34:19;;;;;;;7.55;4.63;;;5.20;67.40;;;;;;5028836;28;20182;-90
2022/04/04 01:36:45;;;;;;;8.00;5.43;;;5.20;67.20;;;;;;5022688;28;20172;-91
2022/04/04 01:39:11;;;;;;;10.13;5.23;;;5.20;67.20;;;;;;5043751;28;20170;-91
2022/04/04 01:41:37;;;;;;;11.70;5.93;;;5.20;68.10;;;;;;5061040;28;20217;-91
2022/04/04 01:44:03;;;;;;;9.30;5.70;;;5.30;67.10;;;;;;5043825;28;20215;-91
2022/04/04 01:46:29;;;;;;;12.85;4.25;;;5.00;67.00;;;;;;5044035;28;20158;-91
2022/04/04 01:48:58;;;;;;;7.60;5.17;;;5.10;67.30;;;;;;5027711;28;20177;-91
2022/04/04 01:51:24;;;;;;;9.43;5.20;;;5.10;67.30;;;;;;5060959;28;20177;-92
2022/04/04 01:53:50;;;;;;;6.50;5.30;;;5.20;67.30;;;;;;5043791;28;20182;-91
2022/04/04 01:56:17;;;;;;;6.78;5.35;;;5.20;67.30;;;;;;5043069;28;20166;-90
2022/04/04 01:58:44;;;;;;;7.75;4.85;;;5.10;67.40;;;;;;5041806;28;20182;-91
2022/04/04 02:01:13;;;;;;;6.78;5.55;;;5.10;67.50;;;;;;5038723;28;20610;-90
2022/04/04 02:03:42;;;;;;;9.10;5.55;;;5.00;67.30;;;;;;5030217;28;20217;-91
2022/04/04 02:06:07;;;;;;;8.25;5.28;;;4.90;67.80;;;;;;5029845;28;20217;-91
2022/04/04 02:08:33;;;;;;;10.50;5.80;;;4.90;68.00;;;;;;5022269;28;20191;-92
2022/04/04 02:11:01;;;;;;;15.20;5.63;;;5.00;68.00;;;;;;5020922;28;20208;-92
2022/04/04 02:13:28;;;;;;;16.25;6.30;;;5.10;68.00;;;;;;5020904;28;20208;-91
2022/04/04 02:15:56;;;;;;;10.90;5.75;;;5.20;68.00;;;;;;5022452;28;20178;-92
2022/04/04 02:18:23;;;;;;;7.22;4.72;;;5.10;67.70;;;;;;5007473;28;20186;-92
2022/04/04 02:20:49;;;;;;;6.60;4.95;;;5.10;67.80;;;;;;5028666;28;20252;-92
2022/04/04 02:23:18;;;;;;;7.65;4.40;;;5.20;67.70;;;;;;5029552;28;20232;-92
2022/04/04 02:25:45;;;;;;;12.57;5.60;;;5.20;67.70;;;;;;5045842;28;20170;-91
2022/04/04 02:28:11;;;;;;;11.27;6.07;;;5.10;67.80;;;;;;5023880;28;20185;-92
2022/04/04 02:30:37;;;;;;;11.68;5.90;;;5.10;67.80;;;;;;5020393;28;20182;-93
2022/04/04 02:33:40;;;;;;;6.05;5.20;;;5.10;67.70;;;;;;5019964;28;20206;-92
2022/04/04 02:36:08;;;;;;;7.55;5.55;;;5.10;67.90;;;;;;4923258;29;20184;-92
2022/04/04 02:38:34;;;;;;;7.65;5.60;;;5.00;68.00;;;;;;5020667;28;20189;-93
2022/04/04 02:41:00;;;;;;;13.93;5.67;;;5.10;68.30;;;;;;5021400;28;20182;-92
2022/04/04 02:43:26;;;;;;;7.60;5.00;;;5.10;68.30;;;;;;5020563;28;20468;-92
2022/04/04 02:45:52;;;;;;;13.40;7.15;;;5.00;68.50;;;;;;5020504;28;20189;-93
2022/04/04 02:48:18;;;;;;;8.50;5.65;;;4.90;68.70;;;;;;5020239;28;20182;-92
2022/04/04 02:50:45;;;;;;;9.17;6.17;;;4.90;69.00;;;;;;5019759;28;20232;-93
2022/04/04 02:53:11;;;;;;;10.93;6.20;;;5.00;69.00;;;;;;5021903;28;20460;-92
2022/04/04 02:58:22;;;;;;;10.25;6.80;;;4.90;69.40;;;;;;5038880;28;20265;-92
2022/04/04 03:00:48;;;;;;;10.80;6.83;;;4.90;69.40;;;;;;5019731;28;20666;-92
2022/04/04 03:03:14;;;;;;;8.33;6.23;;;4.90;69.50;;;;;;5008041;28;20285;-92
2022/04/04 03:05:40;;;;;;;10.20;6.13;;;4.90;69.70;;;;;;5024681;28;20436;-91
2022/04/04 03:08:06;;;;;;;10.65;5.60;;;4.90;69.80;;;;;;5025464;28;20653;-92
2022/04/04 03:10:33;;;;;;;10.55;7.60;;;5.00;69.80;;;;;;5032209;28;20182;-92
2022/04/04 03:13:05;;;;;;;9.13;6.20;;;4.90;69.90;;;;;;5024140;28;20654;-90
2022/04/04 03:15:35;;;;;;;10.48;6.82;;;4.90;70.10;;;;;;5023379;28;20178;-91
2022/04/04 03:18:03;;;;;;;22.52;7.18;;;5.10;70.10;;;;;;5047748;28;20190;-92
2022/04/04 03:20:31;;;;;;;10.73;6.38;;;5.00;70.00;;;;;;5026316;28;20276;-92
2022/04/04 03:22:58;;;;;;;13.77;6.45;;;5.10;70.20;;;;;;5005551;28;20213;-92
2022/04/04 03:25:25;;;;;;;9.00;6.78;;;5.00;70.10;;;;;;5031911;28;20200;-92
2022/04/04 03:27:53;;;;;;;9.70;7.03;;;4.90;70.10;;;;;;5010304;28;20192;-92
2022/04/04 03:30:25;;;;;;;11.82;6.78;;;4.90;70.30;;;;;;5019220;28;20232;-92
2022/04/04 03:32:54;;;;;;;10.50;6.90;;;5.00;70.30;;;;;;5021229;28;20268;-92
2022/04/04 03:35:21;;;;;;;10.30;6.90;;;5.00;70.90;;;;;;5020494;28;20209;-92
2022/04/04 03:37:50;;;;;;;8.95;6.90;;;5.20;70.20;;;;;;5025865;28;20174;-92
2022/04/04 03:40:18;;;;;;;11.93;7.97;;;5.10;70.10;;;;;;5029314;28;20204;-92
2022/04/04 03:42:45;;;;;;;9.57;7.45;;;5.00;70.30;;;;;;5025055;28;20210;-92
2022/04/04 03:45:12;;;;;;;9.63;7.47;;;4.90;70.50;;;;;;5024086;28;20182;-92
2022/04/04 03:47:39;;;;;;;10.43;6.93;;;4.80;70.80;;;;;;5026209;28;20178;-92
2022/04/04 03:50:08;;;;;;;10.32;7.47;;;4.90;71.00;;;;;;5033218;28;20250;-92
2022/04/04 03:52:34;;;;;;;12.90;7.45;;;4.90;71.00;;;;;;5049899;28;20288;-91
2022/04/04 03:55:01;;;;;;;13.27;8.75;;;4.90;71.00;;;;;;5032318;28;20178;-92
2022/04/04 03:57:27;;;;;;;8.48;7.13;;;4.90;71.20;;;;;;5046325;28;20642;-92
2022/04/04 03:59:53;;;;;;;9.15;6.55;;;5.00;71.10;;;;;;5024589;28;20249;-93
2022/04/04 04:02:20;;;;;;;12.23;7.78;;;5.00;71.10;;;;;;5039699;28;20224;-93
2022/04/04 04:04:46;;;;;;;13.48;8.38;;;4.90;71.20;;;;;;5021816;28;20256;-93
2022/04/04 04:07:15;;;;;;;10.13;7.70;;;4.80;71.50;;;;;;5019154;28;20676;-93
2022/04/04 04:09:43;;;;;;;9.13;7.35;;;5.00;71.70;;;;;;5019778;28;20490;-93
2022/04/04 04:12:10;;;;;;;15.85;7.45;;;5.00;71.60;;;;;;5018402;28;20197;-93
2022/04/04 04:14:39;;;;;;;20.90;8.80;;;4.80;71.70;;;;;;5002048;28;20182;-93
2022/04/04 04:17:06;;;;;;;15.23;8.18;;;4.80;71.80;;;;;;5019074;28;20216;-93
2022/04/04 04:22:16;;;;;;;12.45;8.15;;;5.00;71.80;;;;;;5039447;28;20347;-93
2022/04/04 04:24:42;;;;;;;12.27;8.90;;;4.90;71.80;;;;;;5017302;28;20272;-92
2022/04/04 04:27:08;;;;;;;17.00;7.40;;;4.90;72.00;;;;;;5018315;28;20208;-93
2022/04/04 04:29:34;;;;;;;10.10;8.03;;;5.10;71.90;;;;;;5019038;28;20799;-93
2022/04/04 04:31:59;;;;;;;10.52;7.20;;;5.10;71.70;;;;;;5020009;28;20423;-93
2022/04/04 04:34:25;;;;;;;11.60;8.73;;;5.30;71.60;;;;;;5022847;28;20205;-93
2022/04/04 04:36:51;;;;;;;18.10;7.90;;;5.20;71.20;;;;;;5027672;28;20224;-93
2022/04/04 04:39:17;;;;;;;14.03;8.60;;;5.10;71.40;;;;;;5030423;28;20421;-92
2022/04/04 04:41:45;;;;;;;13.32;7.82;;;5.20;71.50;;;;;;5032467;28;20217;-93
2022/04/04 04:44:11;;;;;;;15.25;8.23;;;5.20;71.50;;;;;;5033249;28;20198;-93
2022/04/04 04:46:37;;;;;;;9.57;7.07;;;5.30;71.50;;;;;;5037055;28;20180;-93
2022/04/04 04:49:04;;;;;;;12.45;7.85;;;5.10;71.40;;;;;;5040670;28;20213;-92
2022/04/04 04:51:29;;;;;;;12.50;8.43;;;5.00;71.60;;;;;;5058072;28;20216;-92
2022/04/04 04:53:55;;;;;;;11.93;8.60;;;5.20;71.80;;;;;;5041204;28;20197;-94
2022/04/04 04:56:21;;;;;;;11.63;8.53;;;5.30;71.80;;;;;;5041232;28;20157;-92
2022/04/04 04:58:47;;;;;;;13.80;8.20;;;5.40;71.40;;;;;;5040914;28;20531;-93
2022/04/04 05:01:13;;;;;;;12.13;7.60;;;5.40;71.30;;;;;;5056991;28;20209;-93
2022/04/04 05:03:39;;;;;;;11.87;8.20;;;5.40;71.20;;;;;;5038776;28;20472;-92
2022/04/04 05:06:05;;;;;;;15.10;8.20;;;5.30;71.10;;;;;;5035000;28;20158;-92
2022/04/04 05:08:31;;;;;;;16.05;9.57;;;5.40;71.20;;;;;;5024617;28;20440;-91
2022/04/04 05:11:00;;;;;;;11.60;7.67;;;5.50;71.20;;;;;;5021248;28;20185;-91
2022/04/04 05:13:26;;;;;;;12.25;8.20;;;5.40;70.90;;;;;;5038207;28;20432;-91
2022/04/04 05:15:54;;;;;;;12.15;8.40;;;5.40;71.00;;;;;;5023672;28;20186;-92
2022/04/04 05:18:21;;;;;;;16.55;8.95;;;5.40;71.10;;;;;;5027117;28;20182;-92
2022/04/04 05:20:47;;;;;;;14.32;8.65;;;5.40;71.10;;;;;;5029052;28;20182;-92
2022/04/04 05:23:13;;;;;;;15.93;8.50;;;5.40;71.00;;;;;;5045582;28;20209;-92
2022/04/04 05:25:40;;;;;;;10.30;8.00;;;5.40;71.00;;;;;;5024869;28;20204;-92
2022/04/04 05:28:07;;;;;;;17.15;8.75;;;5.40;71.00;;;;;;5019492;28;20178;-92
2022/04/04 05:30:34;;;;;;;11.07;9.10;;;5.70;71.10;;;;;;5020632;28;20186;-92
2022/04/04 05:33:00;;;;;;;26.48;9.00;;;5.60;70.80;;;;;;5019336;28;20248;-92
2022/04/04 05:35:27;;;;;;;10.90;8.40;;;5.60;70.80;;;;;;5019845;28;20192;-92
2022/04/04 05:37:54;;;;;;;10.95;7.25;;;5.70;70.80;;;;;;5040513;28;20646;-92
2022/04/04 05:40:21;;;;;;;14.02;8.50;;;5.70;70.80;;;;;;5023010;28;20261;-91
2022/04/04 05:42:47;;;;;;;13.15;7.93;;;5.80;70.50;;;;;;5023138;28;20209;-92
2022/04/04 05:45:12;;;;;;;12.80;8.67;;;5.90;70.40;;;;;;5019993;28;20173;-92
2022/04/04 05:47:38;;;;;;;13.73;8.30;;;5.90;70.20;;;;;;5038796;28;20408;-92
2022/04/04 05:50:07;;;;;;;11.60;7.70;;;5.90;70.20;;;;;;5040202;28;20423;-92
2022/04/04 05:52:37;;;;;;;12.27;9.18;;;5.90;70.20;;;;;;5024305;28;20843;-91
2022/04/04 05:55:05;;;;;;;12.90;8.15;;;5.90;70.20;;;;;;5024281;28;20194;-92
2022/04/04 05:57:38;;;;;;;17.45;9.48;;;6.00;70.10;;;;;;5024115;28;20174;-92
2022/04/04 06:00:15;;;;;;;15.13;9.18;;;5.90;70.00;;;;;;5025532;28;20202;-92
2022/04/04 06:02:44;;;;;;;14.50;9.68;;;6.00;69.80;;;;;;5027404;28;20220;-92
2022/04/04 06:05:11;;;;;;;14.73;9.52;;;6.00;69.80;;;;;;5023270;28;20178;-92
2022/04/04 06:07:38;;;;;;;14.73;9.25;;;6.20;69.60;;;;;;5024337;28;20200;-92
2022/04/04 06:10:07;;;;;;;13.88;8.70;;;6.20;69.20;;;;;;5020047;28;20201;-93
2022/04/04 06:12:34;;;;;;;13.05;9.38;;;6.40;69.20;;;;;;5022467;28;20765;-93
2022/04/04 06:15:01;;;;;;;13.27;7.70;;;6.40;68.90;;;;;;5019705;28;20185;-93
2022/04/04 06:17:27;;;;;;;13.05;7.75;;;6.50;68.70;;;;;;5021261;28;20182;-93
2022/04/04 06:19:53;;;;;;;16.10;9.50;;;6.40;68.50;;;;;;5025309;28;20190;-93
2022/04/04 06:22:19;;;;;;;12.70;9.57;;;6.50;68.60;;;;;;5037956;28;20229;-94
2022/04/04 06:24:44;;;;;;;15.20;7.83;;;6.60;68.50;;;;;;5041941;28;20266;-92
2022/04/04 06:27:10;;;;;;;21.67;9.67;;;6.40;68.30;;;;;;5033460;28;20182;-92
2022/04/04 06:29:36;;;;;;;19.83;9.20;;;6.60;68.40;;;;;;5027641;28;20947;-92
2022/04/04 06:32:03;;;;;;;13.67;8.43;;;6.60;68.30;;;;;;5026965;28;20638;-92
2022/04/04 06:34:29;;;;;;;16.77;8.15;;;6.50;68.30;;;;;;5006568;28;20498;-92
2022/04/04 06:36:56;;;;;;;10.90;7.67;;;6.70;68.30;;;;;;5020812;28;20190;-93
2022/04/04 06:39:22;;;;;;;12.02;7.93;;;6.60;68.10;;;;;;5026203;28;20174;-92
2022/04/04 06:41:48;;;;;;;12.00;7.80;;;6.60;68.10;;;;;;5025165;28;20236;-92
2022/04/04 06:44:15;;;;;;;15.90;8.67;;;6.70;68.20;;;;;;5027423;28;20587;-92
2022/04/04 06:46:41;;;;;;;12.55;7.30;;;6.70;68.10;;;;;;5025244;28;20448;-92
2022/04/04 06:49:08;;;;;;;13.45;7.95;;;7.00;67.70;;;;;;5022744;28;20752;-92
2022/04/04 06:51:34;;;;;;;15.32;7.90;;;7.00;67.40;;;;;;5022262;28;20729;-93
2022/04/04 06:54:05;;;;;;;12.13;9.10;;;7.10;67.40;;;;;;5039500;28;20288;-92
2022/04/04 06:56:37;;;;;;;14.48;8.40;;;7.30;67.10;;;;;;5022615;28;20213;-93
2022/04/04 06:59:03;;;;;;;12.35;8.50;;;7.20;66.60;;;;;;5024896;28;20312;-93
2022/04/04 07:01:31;;;;;;;13.50;8.03;;;7.40;66.60;;;;;;5022700;28;20186;-92
2022/04/04 07:03:58;;;;;;;10.70;7.32;;;7.50;66.30;;;;;;5023241;28;20875;-91
2022/04/04 07:06:25;;;;;;;12.00;8.23;;;7.60;66.30;;;;;;5024372;28;20737;-91
2022/04/04 07:08:51;;;;;;;13.27;6.75;;;7.70;65.60;;;;;;5024929;28;20178;-91
2022/04/04 07:11:19;;;;;;;8.75;6.80;;;7.70;65.40;;;;;;5023916;28;20174;-90
2022/04/04 07:13:49;;;;;;;21.23;8.60;;;7.80;65.30;;;;;;5024143;28;20269;-91
2022/04/04 07:16:15;;;;;;;13.88;7.50;;;7.90;65.30;;;;;;5025925;28;20181;-91
2022/04/04 07:18:41;;;;;;;17.98;8.02;;;7.90;65.10;;;;;;5033313;28;20203;-91
2022/04/04 07:21:07;;;;;;;16.07;8.50;;;7.90;64.80;;;;;;5053872;28;20241;-92
2022/04/04 07:23:33;;;;;;;11.00;7.20;;;8.00;64.70;;;;;;5037215;28;20508;-91
2022/04/04 07:25:58;;;;;;;14.17;8.80;;;8.10;64.80;;;;;;5029492;28;20535;-91
2022/04/04 07:28:24;;;;;;;17.33;7.17;;;8.10;64.50;;;;;;5032011;28;20185;-91
2022/04/04 07:30:52;;;;;;;24.30;9.27;;;8.20;64.40;;;;;;5034240;28;20193;-91
2022/04/04 07:33:18;;;;;;;14.20;6.60;;;8.20;64.20;;;;;;5031981;28;20578;-91
2022/04/04 07:35:45;;;;;;;15.52;7.38;;;8.40;64.40;;;;;;5035912;28;20185;-91
2022/04/04 07:38:11;;;;;;;10.55;7.18;;;8.60;63.80;;;;;;5019935;28;20178;-92
2022/04/04 07:40:38;;;;;;;10.65;7.85;;;8.80;63.20;;;;;;5006858;28;20189;-92
2022/04/04 07:43:04;;;;;;;14.57;7.32;;;8.90;62.90;;;;;;5030469;28;20214;-91
2022/04/04 07:45:31;;;;;;;11.32;6.93;;;8.90;62.50;;;;;;5054551;28;20186;-92
2022/04/04 07:47:58;;;;;;;11.02;7.20;;;9.00;62.20;;;;;;5054224;28;20201;-92
2022/04/04 07:50:24;;;;;;;12.02;7.95;;;8.90;62.20;;;;;;5026855;28;20174;-92
2022/04/04 07:52:50;;;;;;;13.80;7.20;;;8.90;62.10;;;;;;5020641;28;20220;-92
2022/04/04 07:55:16;;;;;;;11.55;7.57;;;8.90;62.20;;;;;;5020129;28;20422;-92
2022/04/04 07:57:42;;;;;;;14.25;7.35;;;9.00;62.40;;;;;;5041046;28;20249;-92
2022/04/04 08:00:14;;;;;;;14.25;7.07;;;9.10;62.20;;;;;;5039988;28;20190;-93
2022/04/04 08:02:40;;;;;;;15.82;7.50;;;9.20;62.00;;;;;;5040986;28;20230;-92
2022/04/04 08:05:08;;;;;;;14.63;8.20;;;9.10;61.90;;;;;;5041517;28;20170;-90
2022/04/04 08:07:34;;;;;;;13.43;7.18;;;9.00;61.90;;;;;;5041408;28;20158;-92
2022/04/04 08:10:00;;;;;;;11.77;7.45;;;9.20;61.90;;;;;;5041391;28;20226;-93
2022/04/04 08:12:28;;;;;;;9.48;6.80;;;9.40;61.50;;;;;;5041262;28;20200;-92
2022/04/04 08:14:58;;;;;;;9.55;6.45;;;9.50;61.00;;;;;;5041050;28;20185;-92
2022/04/04 08:17:24;;;;;;;10.90;7.45;;;9.50;60.60;;;;;;5036606;28;20182;-92
2022/04/04 08:19:50;;;;;;;21.70;7.50;;;9.60;60.20;;;;;;5033199;28;20174;-94
2022/04/04 08:22:17;;;;;;;12.25;7.35;;;9.70;60.10;;;;;;5034075;28;20572;-93
2022/04/04 08:24:43;;;;;;;16.55;7.00;;;9.70;60.10;;;;;;5031016;28;20178;-93
2022/04/04 08:27:11;;;;;;;11.60;6.40;;;9.80;59.80;;;;;;5029632;28;20208;-95
2022/04/04 08:29:38;;;;;;;10.00;8.20;;;9.70;59.40;;;;;;5010466;28;20170;-93
2022/04/04 08:32:05;;;;;;;10.43;7.38;;;9.70;59.40;;;;;;5024219;28;20250;-93
2022/04/04 08:34:31;;;;;;;10.02;5.90;;;9.80;59.20;;;;;;5023422;28;20184;-94
2022/04/04 08:36:57;;;;;;;10.50;7.15;;;9.80;59.20;;;;;;5020246;28;20197;-93
2022/04/04 08:39:24;;;;;;;14.23;7.00;;;9.80;59.30;;;;;;5019125;28;20635;-92
2022/04/04 08:41:49;;;;;;;6.80;5.82;;;9.60;59.50;;;;;;5018657;28;20185;-93
2022/04/04 08:44:16;;;;;;;10.53;6.33;;;9.30;59.90;;;;;;5019240;28;20216;-92
2022/04/04 08:46:43;;;;;;;10.93;5.95;;;9.20;60.10;;;;;;5017914;28;20421;-94
2022/04/04 08:49:08;;;;;;;14.52;8.50;;;9.10;60.50;;;;;;5018811;28;20267;-92
2022/04/04 08:51:36;;;;;;;11.97;7.17;;;9.10;61.10;;;;;;5017404;28;20193;-93
2022/04/04 08:54:03;;;;;;;11.93;7.20;;;9.00;61.20;;;;;;5024414;28;20443;-94
2022/04/04 08:56:29;;;;;;;9.35;6.50;;;9.00;61.60;;;;;;5018500;28;20182;-92
2022/04/04 08:58:55;;;;;;;12.48;6.60;;;8.90;61.80;;;;;;5018212;28;20185;-93
2022/04/04 09:01:23;;;;;;;11.70;7.40;;;9.00;62.10;;;;;;5018537;28;20186;-93
2022/04/04 09:04:16;;;;;;;12.95;6.50;;;9.00;62.30;;;;;;5017189;28;20596;-92
2022/04/04 09:06:53;;;;;;;13.70;7.53;;;9.00;62.50;;;;;;5015499;28;20206;-93
2022/04/04 09:09:36;;;;;;;10.82;6.90;;;8.80;62.90;;;;;;5018331;28;20170;-93
2022/04/04 09:12:11;;;;;;;11.10;7.28;;;8.90;63.20;;;;;;5023390;28;20170;-93
2022/04/04 09:14:43;;;;;;;12.68;6.70;;;8.80;63.50;;;;;;5023630;28;20173;-93
2022/04/04 09:17:10;;;;;;;12.55;6.80;;;8.80;63.90;;;;;;5023664;28;20200;-93
2022/04/04 09:19:36;;;;;;;11.35;7.68;;;9.00;64.00;;;;;;5023772;28;20174;-92
2022/04/04 09:22:09;;;;;;;20.73;8.10;;;9.10;63.80;;;;;;5023399;28;20178;-93
2022/04/04 09:24:57;;;;;;;12.75;7.25;;;8.90;64.00;;;;;;5033414;28;20162;-93
2022/04/04 09:27:32;;;;;;;12.50;6.55;;;8.80;64.80;;;;;;5040051;28;20178;-93
2022/04/04 09:30:01;;;;;;;19.15;7.20;;;8.70;65.80;;;;;;5024912;28;20268;-92
2022/04/04 09:32:41;;;;;;;13.27;8.80;;;8.80;66.20;;;;;;5021796;28;20221;-93
2022/04/04 09:35:15;;;;;;;12.20;6.78;;;8.60;66.90;;;;;;5021122;28;20813;-92
2022/04/04 09:37:44;;;;;;;10.52;6.82;;;8.70;67.70;;;;;;5021108;28;20169;-92
2022/04/04 09:40:15;;;;;;;9.30;7.97;;;8.70;68.30;;;;;;5026420;28;20182;-92
2022/04/04 09:43:02;;;;;;;24.35;8.57;;;8.70;68.70;;;;;;5030416;28;20257;-93
2022/04/04 09:45:30;;;;;;;17.75;7.25;;;8.80;69.20;;;;;;5012757;28;20203;-93
2022/04/04 09:48:08;;;;;;;12.32;7.10;;;8.70;70.00;;;;;;5023094;28;20174;-93
2022/04/04 09:50:36;;;;;;;14.25;7.30;;;8.80;70.50;;;;;;5022865;28;20205;-92
2022/04/04 09:53:31;;;;;;;10.68;8.00;;;8.70;71.20;;;;;;5023784;28;20228;-93
2022/04/04 09:56:00;;;;;;;10.63;7.50;;;8.60;72.00;;;;;;5020468;28;20185;-93
2022/04/04 09:58:29;;;;;;;10.55;8.48;;;8.50;72.80;;;;;;5021578;28;20182;-92
2022/04/04 10:00:56;;;;;;;13.73;8.43;;;8.70;73.60;;;;;;5022572;28;20236;-92
2022/04/04 10:03:23;;;;;;;9.55;6.90;;;8.50;73.60;;;;;;5019380;28;20218;-92
2022/04/04 10:06:20;;;;;;;15.40;7.38;;;8.50;73.90;;;;;;5021766;28;20575;-93
2022/04/04 10:08:54;;;;;;;13.00;7.78;;;8.70;74.00;;;;;;5023835;28;20181;-91
2022/04/04 10:11:22;;;;;;;12.80;8.15;;;8.60;74.10;;;;;;5021254;28;20181;-91
2022/04/04 10:13:48;;;;;;;12.00;8.05;;;8.50;74.20;;;;;;5020220;28;20278;-92
2022/04/04 10:16:16;;;;;;;11.23;8.23;;;8.40;74.30;;;;;;5019865;28;20182;-91
2022/04/04 10:18:46;;;;;;;11.65;7.50;;;8.50;74.70;;;;;;5019860;28;20178;-92
2022/04/04 10:21:12;;;;;;;15.90;7.90;;;8.50;74.90;;;;;;5024016;28;20221;-91
2022/04/04 10:23:41;;;;;;;10.73;7.97;;;8.60;74.90;;;;;;5020827;28;20780;-91
2022/04/04 10:26:07;;;;;;;13.82;8.02;;;8.50;75.20;;;;;;5020810;28;20185;-92
2022/04/04 10:28:38;;;;;;;10.57;8.10;;;8.60;75.50;;;;;;5023445;28;20197;-92
2022/04/04 10:31:26;;;;;;;15.50;9.05;;;8.60;75.70;;;;;;5027255;28;20198;-92
2022/04/04 10:33:52;;;;;;;13.70;9.18;;;8.50;75.90;;;;;;5031802;28;20209;-92
2022/04/04 10:36:24;;;;;;;14.70;8.63;;;8.50;76.20;;;;;;5035283;28;20237;-91
2022/04/04 10:38:52;;;;;;;15.00;8.98;;;8.40;76.30;;;;;;5034117;28;20591;-91
2022/04/04 10:41:20;;;;;;;11.80;8.57;;;8.40;76.90;;;;;;5031189;28;20189;-92
2022/04/04 10:43:48;;;;;;;17.00;8.93;;;8.40;76.70;;;;;;5026446;28;20209;-92
2022/04/04 10:46:17;;;;;;;19.08;8.48;;;8.40;76.50;;;;;;5026002;28;20182;-92
2022/04/04 10:49:04;;;;;;;21.70;9.68;;;8.30;76.60;;;;;;5024731;28;20174;-92
2022/04/04 10:51:34;;;;;;;11.45;9.23;;;8.50;76.90;;;;;;5022978;28;20252;-92
2022/04/04 10:54:06;;;;;;;17.83;9.10;;;8.50;76.90;;;;;;5025133;28;20204;-92
2022/04/04 10:56:37;;;;;;;12.05;9.63;;;8.50;76.50;;;;;;5024051;28;20190;-93
2022/04/04 10:59:15;;;;;;;18.63;9.93;;;8.50;76.50;;;;;;5026703;28;20209;-93
2022/04/04 11:01:47;;;;;;;16.98;9.02;;;8.40;77.00;;;;;;5024234;28;20185;-94
2022/04/04 11:04:36;;;;;;;14.35;8.02;;;8.50;77.40;;;;;;5026376;28;20217;-94
2022/04/04 11:09:55;;;;;;;17.88;9.85;;;8.30;77.50;;;;;;5058887;28;20158;-93
2022/04/04 11:12:24;;;;;;;11.20;8.77;;;8.40;78.00;;;;;;5041815;28;20184;-94
2022/04/04 11:14:55;;;;;;;12.63;8.82;;;8.40;78.40;;;;;;5042076;28;20195;-93
2022/04/04 11:17:30;;;;;;;14.73;8.00;;;8.50;78.70;;;;;;5041667;28;20180;-93
2022/04/04 11:20:21;;;;;;;16.08;7.75;;;8.40;78.70;;;;;;5041572;28;20165;-93
2022/04/04 11:22:52;;;;;;;13.75;8.88;;;8.40;79.10;;;;;;5039602;28;20264;-93
2022/04/04 11:25:21;;;;;;;16.25;9.40;;;8.40;79.40;;;;;;5023701;28;20189;-93
2022/04/04 11:27:48;;;;;;;12.18;8.88;;;8.30;79.80;;;;;;5021534;28;20170;-94
2022/04/04 11:30:16;;;;;;;15.40;8.68;;;8.30;80.40;;;;;;5022750;28;20205;-92
2022/04/04 11:32:44;;;;;;;15.00;8.02;;;8.40;80.40;;;;;;5021601;28;20826;-93
2022/04/04 11:35:15;;;;;;;12.68;8.68;;;8.50;80.60;;;;;;5021923;28;20192;-93
2022/04/04 11:37:40;;;;;;;13.45;9.52;;;8.50;80.80;;;;;;5031431;28;20173;-93
2022/04/04 11:40:08;;;;;;;14.20;9.50;;;8.50;80.80;;;;;;5025366;28;20189;-93
2022/04/04 11:42:42;;;;;;;13.00;9.38;;;8.40;80.80;;;;;;5025137;28;20202;-93
2022/04/04 11:45:08;;;;;;;17.90;8.95;;;8.50;81.20;;;;;;5024374;28;20817;-93
2022/04/04 11:47:39;;;;;;;12.35;8.30;;;8.50;82.30;;;;;;5025758;28;20212;-93
2022/04/04 11:50:06;;;;;;;17.15;9.30;;;8.60;81.20;;;;;;5027493;28;20166;-93
2022/04/04 11:52:45;;;;;;;17.98;9.15;;;8.70;81.10;;;;;;5030337;28;20224;-93
2022/04/04 11:55:14;;;;;;;10.90;7.63;;;8.60;81.20;;;;;;5025613;28;20180;-92
2022/04/04 11:57:40;;;;;;;14.80;9.23;;;8.60;81.10;;;;;;5026761;28;20177;-92
2022/04/04 12:00:11;;;;;;;14.73;9.13;;;8.60;81.40;;;;;;5023772;28;20177;-93
2022/04/04 12:02:38;;;;;;;13.18;9.10;;;8.60;81.20;;;;;;5024737;28;20201;-93
2022/04/04 12:05:06;;;;;;;14.32;8.90;;;8.50;81.20;;;;;;5025671;28;20182;-93
2022/04/04 12:07:33;;;;;;;12.57;8.75;;;8.50;81.20;;;;;;5025541;28;20185;-92
2022/04/04 12:10:01;;;;;;;12.27;9.05;;;8.50;81.50;;;;;;5023630;28;20240;-92
2022/04/04 12:12:33;;;;;;;12.52;8.60;;;8.50;81.70;;;;;;5022474;28;20194;-92
2022/04/04 12:14:59;;;;;;;12.65;9.45;;;8.50;81.90;;;;;;5021674;28;20177;-93
2022/04/04 12:17:25;;;;;;;18.60;9.30;;;8.60;82.10;;;;;;5020828;28;20174;-92
2022/04/04 12:19:52;;;;;;;13.85;9.30;;;8.50;82.40;;;;;;5021986;28;20178;-92
2022/04/04 12:25:07;;;;;;;12.63;9.18;;;8.60;82.70;;;;;;5050374;28;20181;-92
2022/04/04 12:27:33;;;;;;;15.40;10.38;;;8.40;83.20;;;;;;5029117;28;20832;-92
2022/04/04 12:30:05;;;;;;;16.20;10.52;;;8.50;83.60;;;;;;5024656;28;20178;-91
2022/04/04 12:32:38;;;;;;;16.10;9.15;;;8.50;83.50;;;;;;5025085;28;20232;-92
2022/04/04 12:35:06;;;;;;;12.90;9.05;;;8.50;83.60;;;;;;5025317;28;20188;-92
2022/04/04 12:37:44;;;;;;;18.23;9.13;;;8.50;83.60;;;;;;5027835;28;20181;-92
2022/04/04 12:40:17;;;;;;;13.80;9.57;;;8.60;83.60;;;;;;5032056;28;20158;-92
2022/04/04 12:42:44;;;;;;;16.73;10.32;;;8.60;83.60;;;;;;5027182;28;20205;-92
2022/04/04 12:45:11;;;;;;;18.75;9.65;;;8.60;83.70;;;;;;5026954;28;20198;-92
2022/04/04 12:47:58;;;;;;;16.92;9.82;;;8.50;83.90;;;;;;5035584;28;20173;-92
2022/04/04 12:50:35;;;;;;;15.15;10.55;;;8.60;83.90;;;;;;5042181;28;20178;-92
2022/04/04 12:53:03;;;;;;;14.63;10.40;;;8.70;84.00;;;;;;5041350;28;20690;-92
2022/04/04 12:55:30;;;;;;;14.10;8.90;;;8.70;84.00;;;;;;5040713;28;20178;-92
2022/04/04 12:58:13;;;;;;;13.20;9.00;;;8.50;84.10;;;;;;5038328;28;20181;-92
2022/04/04 13:00:40;;;;;;;16.55;9.02;;;8.60;84.20;;;;;;5037275;28;20196;-92
2022/04/04 13:03:27;;;;;;;16.05;9.07;;;8.50;85.30;;;;;;5024951;28;20209;-92
2022/04/04 13:05:57;;;;;;;11.93;8.25;;;8.40;84.70;;;;;;5024362;28;20704;-92